createdAt,value
2022-09-07T00:03:57.434Z,5.07
2022-09-07T00:08:59.030Z,4.80
2022-09-07T00:14:00.684Z,4.30
2022-09-07T00:19:03.837Z,4.85
2022-09-07T00:24:05.595Z,4.47
2022-09-07T00:29:07.997Z,4.25
2022-09-07T00:34:09.591Z,4.45
2022-09-07T00:39:11.147Z,5.03
2022-09-07T00:44:43.752Z,4.45
2022-09-07T00:49:50.485Z,4.50
2022-09-07T00:54:56.482Z,4.40
2022-09-07T00:59:59.194Z,4.75
2022-09-07T01:05:09.504Z,5.75
2022-09-07T01:10:11.593Z,3.95
2022-09-07T01:15:13.158Z,4.85
2022-09-07T01:20:55.880Z,4.38
2022-09-07T01:26:24.623Z,4.32
2022-09-07T01:31:37.076Z,4.53
2022-09-07T01:37:04.223Z,4.55
2022-09-07T01:42:10.567Z,4.13
2022-09-07T01:47:24.343Z,4.53
2022-09-07T01:52:44.335Z,4.28
2022-09-07T02:03:14.695Z,4.35
2022-09-07T02:08:25.565Z,4.28
2022-09-07T02:13:47.795Z,3.95
2022-09-07T02:18:54.995Z,3.88
2022-09-07T02:24:06.484Z,4.18
2022-09-07T02:29:08.327Z,3.90
2022-09-07T02:34:10.361Z,3.28
2022-09-07T02:39:11.911Z,2.70
2022-09-07T02:44:20.281Z,2.67
2022-09-07T02:49:36.758Z,2.35
2022-09-07T02:55:09.473Z,2.30
2022-09-07T03:00:15.394Z,2.35
2022-09-07T03:05:24.610Z,2.20
2022-09-07T03:10:27.171Z,2.40
2022-09-07T03:15:28.972Z,2.30
2022-09-07T03:20:30.671Z,2.30
2022-09-07T03:25:32.395Z,2.50
2022-09-07T03:30:34.057Z,2.50
2022-09-07T03:35:35.622Z,2.53
2022-09-07T03:40:37.456Z,2.85
2022-09-07T03:45:39.064Z,3.10
2022-09-07T03:50:40.688Z,2.70
2022-09-07T03:55:42.266Z,3.20
2022-09-07T04:00:43.808Z,2.85
2022-09-07T04:05:45.459Z,3.20
2022-09-07T04:10:47.031Z,3.13
2022-09-07T04:15:52.128Z,3.15
2022-09-07T04:20:58.627Z,3.10
2022-09-07T04:26:00.259Z,3.45
2022-09-07T04:31:02.414Z,3.40
2022-09-07T04:36:04.851Z,3.17
2022-09-07T04:41:10.074Z,3.53
2022-09-07T04:46:26.533Z,3.78
2022-09-07T04:51:30.276Z,3.70
2022-09-07T04:56:32.338Z,3.40
2022-09-07T05:01:34.423Z,3.42
2022-09-07T05:06:36.404Z,4.25
2022-09-07T05:11:38.040Z,3.75
2022-09-07T05:16:39.651Z,3.72
2022-09-07T05:21:41.524Z,3.60
2022-09-07T05:26:43.245Z,4.80
2022-09-07T05:31:45.209Z,4.60
2022-09-07T05:36:46.743Z,4.05
2022-09-07T05:41:48.362Z,4.03
2022-09-07T05:46:51.684Z,3.08
2022-09-07T05:51:53.362Z,3.50
2022-09-07T05:56:54.975Z,2.72
2022-09-07T06:01:56.782Z,2.88
2022-09-07T06:07:20.660Z,2.80
2022-09-07T06:12:20.202Z,2.63
2022-09-07T06:17:21.933Z,2.95
2022-09-07T06:22:26.675Z,2.42
2022-09-07T06:27:30.689Z,2.38
2022-09-07T06:32:43.229Z,2.63
2022-09-07T06:37:45.255Z,2.38
2022-09-07T06:42:46.827Z,2.17
2022-09-07T06:47:53.839Z,2.10
2022-09-07T06:58:17.183Z,2.33
2022-09-07T07:03:19.481Z,2.10
2022-09-07T07:08:23.106Z,2.03
2022-09-07T07:13:24.887Z,2.10
2022-09-07T07:18:26.457Z,2.35
2022-09-07T07:23:28.082Z,2.22
2022-09-07T07:33:53.035Z,1.98
2022-09-07T07:44:00.534Z,2.20
2022-09-07T07:49:02.332Z,2.30
2022-09-07T07:54:04.001Z,2.08
2022-09-07T07:59:05.670Z,1.88
2022-09-07T08:04:07.184Z,2.30
2022-09-07T08:09:08.711Z,1.85
2022-09-07T08:14:10.406Z,2.58
2022-09-07T08:19:12.208Z,2.33
2022-09-07T08:24:13.764Z,2.15
2022-09-07T08:29:15.520Z,1.95
2022-09-07T08:34:17.236Z,1.83
2022-09-07T08:39:18.837Z,2.20
2022-09-07T08:44:39.139Z,2.10
2022-09-07T08:49:43.838Z,2.08
2022-09-07T08:54:58.298Z,2.33
2022-09-07T09:00:11.623Z,2.13
2022-09-07T09:05:35.840Z,2.50
2022-09-07T09:10:56.540Z,2.40
2022-09-07T09:16:18.257Z,2.17
2022-09-07T09:21:20.559Z,1.55
2022-09-07T09:26:27.832Z,2.13
2022-09-07T09:31:35.991Z,1.90
2022-09-07T09:36:49.755Z,1.80
2022-09-07T09:41:51.731Z,1.92
2022-09-07T09:52:44.956Z,1.90
2022-09-07T10:08:54.688Z,1.73
2022-09-07T10:13:57.898Z,2.08
2022-09-07T10:19:01.217Z,1.80
2022-09-07T10:24:06.142Z,2.15
2022-09-07T10:29:14.868Z,2.13
2022-09-07T10:34:49.036Z,2.22
2022-09-07T10:47:01.231Z,1.50
2022-09-07T10:52:08.777Z,1.70
2022-09-07T10:57:49.354Z,1.65
2022-09-07T11:03:27.355Z,1.67
2022-09-07T11:09:17.586Z,1.58
2022-09-07T11:14:22.311Z,1.75
2022-09-07T11:19:49.825Z,1.50
2022-09-07T11:30:35.844Z,1.60
2022-09-07T11:35:55.770Z,1.80
2022-09-07T11:41:06.395Z,1.98
2022-09-07T11:46:18.789Z,1.85
2022-09-07T11:52:05.081Z,1.73
2022-09-07T11:57:15.822Z,1.77
2022-09-07T12:02:57.616Z,1.48
2022-09-07T12:08:22.092Z,1.50
2022-09-07T12:13:47.992Z,1.63
2022-09-07T12:19:10.788Z,1.58
2022-09-07T12:24:34.020Z,1.60
2022-09-07T12:29:35.986Z,1.55
2022-09-07T12:34:52.437Z,1.80
2022-09-07T12:40:32.140Z,1.60
2022-09-07T12:45:33.617Z,1.90
2022-09-07T12:50:42.242Z,1.88
2022-09-07T12:56:16.723Z,1.70
2022-09-07T13:01:46.247Z,2.03
2022-09-07T13:07:17.312Z,1.90
2022-09-07T13:17:57.080Z,1.70
2022-09-07T13:23:25.454Z,1.48
2022-09-07T13:28:42.424Z,1.75
2022-09-07T13:33:50.369Z,1.70
2022-09-07T13:38:53.934Z,1.65
2022-09-07T13:44:01.186Z,1.67
2022-09-07T13:49:23.530Z,1.50
2022-09-07T13:54:44.179Z,1.30
2022-09-07T13:59:50.283Z,1.70
2022-09-07T14:04:54.901Z,1.40
2022-09-07T14:10:21.018Z,1.52
2022-09-07T14:15:25.532Z,1.30
2022-09-07T14:20:28.180Z,1.30
2022-09-07T14:25:30.120Z,1.20
2022-09-07T14:30:33.472Z,1.33
2022-09-07T14:35:38.455Z,1.42
2022-09-07T14:40:40.325Z,1.30
2022-09-07T14:45:41.947Z,1.25
2022-09-07T14:51:05.515Z,1.05
2022-09-07T14:56:10.891Z,1.20
2022-09-07T15:12:36.434Z,1.08
2022-09-07T15:17:43.638Z,1.20
2022-09-07T15:22:45.948Z,1.35
2022-09-07T15:27:47.713Z,1.20
2022-09-07T15:32:49.502Z,1.10
2022-09-07T15:38:59.555Z,1.60
2022-09-07T15:43:20.418Z,1.30
2022-09-07T15:48:27.062Z,1.20
2022-09-07T15:58:55.923Z,1.20
2022-09-07T16:03:58.761Z,1.30
2022-09-07T16:09:00.438Z,1.45
2022-09-07T16:14:03.498Z,0.93
2022-09-07T16:19:07.325Z,0.90
2022-09-07T16:24:09.208Z,0.88
2022-09-07T16:29:10.921Z,0.90
2022-09-07T16:34:14.102Z,1.02
2022-09-07T16:39:16.154Z,1.25
2022-09-07T16:44:17.857Z,1.00
2022-09-07T16:49:19.685Z,1.52
2022-09-07T16:54:21.392Z,1.17
2022-09-07T16:59:26.662Z,1.10
2022-09-07T17:04:29.077Z,0.80
2022-09-07T17:09:30.694Z,0.82
2022-09-07T17:14:32.670Z,0.80
2022-09-07T17:19:34.544Z,0.90
2022-09-07T17:24:36.189Z,0.80
2022-09-07T17:29:37.843Z,0.98
2022-09-07T17:34:39.383Z,0.77
2022-09-07T17:39:41.073Z,0.90
2022-09-07T17:44:42.708Z,1.40
2022-09-07T17:49:44.352Z,0.85
2022-09-07T17:54:45.854Z,1.10
2022-09-07T18:05:11.468Z,1.08
2022-09-07T18:10:13.107Z,1.42
2022-09-07T18:15:14.802Z,1.20
2022-09-07T18:20:16.548Z,1.30
2022-09-07T18:25:18.104Z,1.73
2022-09-07T18:30:47.475Z,1.77
2022-09-07T18:35:49.054Z,1.85
2022-09-07T18:41:00.140Z,1.73
2022-09-07T18:46:08.532Z,1.50
2022-09-07T18:51:10.783Z,1.80
2022-09-07T18:56:15.038Z,2.00
2022-09-07T19:01:18.613Z,2.00
2022-09-07T19:06:20.351Z,2.40
2022-09-07T19:11:24.743Z,2.35
2022-09-07T19:16:27.902Z,2.05
2022-09-07T19:21:33.011Z,1.70
2022-09-07T19:26:37.229Z,1.80
2022-09-07T19:31:38.760Z,1.80
2022-09-07T19:36:40.762Z,1.75
2022-09-07T19:41:45.034Z,1.83
2022-09-07T19:46:46.589Z,1.90
2022-09-07T19:51:51.822Z,2.42
2022-09-07T19:56:53.380Z,2.28
2022-09-07T20:01:55.023Z,2.53
2022-09-07T20:06:56.574Z,1.80
2022-09-07T20:11:58.261Z,2.13
2022-09-07T20:16:59.896Z,2.30
2022-09-07T20:22:01.580Z,1.52
2022-09-07T20:27:03.178Z,1.90
2022-09-07T20:32:04.778Z,1.80
2022-09-07T20:37:06.382Z,1.52
2022-09-07T20:42:07.956Z,2.03
2022-09-07T20:47:11.706Z,1.52
2022-09-07T20:52:13.212Z,1.52
2022-09-07T20:57:14.703Z,1.30
2022-09-07T21:02:16.266Z,1.70
2022-09-07T21:07:17.847Z,1.60
2022-09-07T21:12:19.590Z,1.50
2022-09-07T21:17:21.187Z,1.30
2022-09-07T21:22:22.749Z,1.23
2022-09-07T21:27:24.290Z,1.45
2022-09-07T21:32:25.860Z,1.42
2022-09-07T21:37:27.366Z,1.50
2022-09-07T21:42:29.008Z,1.58
2022-09-07T21:47:30.519Z,1.60
2022-09-07T21:52:32.034Z,2.03
2022-09-07T21:57:33.555Z,1.27
2022-09-07T22:02:35.164Z,1.55
2022-09-07T22:07:36.670Z,1.50
2022-09-07T22:12:38.209Z,1.50
2022-09-07T22:17:42.310Z,1.25
2022-09-07T22:22:47.281Z,1.50
2022-09-07T22:27:48.778Z,1.67
2022-09-07T22:32:51.605Z,1.80
2022-09-07T22:37:53.111Z,2.30
2022-09-07T22:42:54.612Z,2.28
2022-09-07T22:47:58.226Z,2.90
2022-09-07T22:52:59.748Z,3.03
2022-09-07T22:58:01.243Z,3.20
2022-09-07T23:03:03.790Z,3.00
2022-09-07T23:08:05.367Z,3.05
2022-09-07T23:13:08.931Z,3.30
2022-09-07T23:18:19.053Z,2.53
2022-09-07T23:23:20.599Z,3.25
2022-09-07T23:28:22.098Z,3.20
2022-09-07T23:33:24.194Z,2.53
2022-09-07T23:38:26.278Z,2.75
2022-09-07T23:43:30.085Z,3.30
2022-09-07T23:48:31.715Z,2.92
2022-09-07T23:53:33.352Z,3.47
2022-09-07T23:58:35.074Z,3.40
